Time;durP1;ratioP1;P1;durP2;ratioP2;P2;SDS_P1;SDS_P2;PMS_P1;PMS_P2;Temp;Humidity;BMP_temperature;BMP_pressure;BME280_temperature;BME280_humidity;BME280_pressure;Samples;Min_cycle;Max_cycle;Signal;HPM_P1;HPM_P2
2023/02/07 00:01:15;;;;;;;22.95;9.68;;;;;;;;;;4963128;29;20035;-77
2023/02/07 00:03:46;;;;;;;21.85;10.13;;;;;;;;;;4951793;29;20035;-78
2023/02/07 00:06:22;;;;;;;21.42;9.75;;;;;;;;;;4965210;28;20552;-78
2023/02/07 00:08:50;;;;;;;22.73;9.20;;;;;;;;;;4961660;28;20038;-79
2023/02/07 00:11:20;;;;;;;19.50;9.15;;;;;;;;;;4946387;29;20128;-80
2023/02/07 00:13:48;;;;;;;18.48;8.63;;;;;;;;;;4946340;28;20041;-78
2023/02/07 00:16:17;;;;;;;20.38;8.60;;;;;;;;;;4965357;28;20042;-79
2023/02/07 00:18:42;;;;;;;21.88;9.77;;;;;;;;;;4965605;28;20038;-79
2023/02/07 00:21:13;;;;;;;23.75;10.38;;;;;;;;;;4967220;28;20053;-79
2023/02/07 00:23:39;;;;;;;20.52;9.95;;;;;;;;;;4965974;28;20043;-77
2023/02/07 00:26:08;;;;;;;22.02;10.15;;;;;;;;;;4967923;28;20241;-80
2023/02/07 00:28:34;;;;;;;22.83;10.50;;;;;;;;;;4970304;28;20019;-79
2023/02/07 00:31:07;;;;;;;17.92;9.77;;;;;;;;;;4947350;29;20045;-79
2023/02/07 00:33:38;;;;;;;21.65;10.13;;;;;;;;;;4957948;28;20589;-76
2023/02/07 00:36:06;;;;;;;25.70;10.32;;;;;;;;;;4966098;28;20031;-78
2023/02/07 00:38:32;;;;;;;24.23;10.82;;;;;;;;;;4969258;28;20027;-78
2023/02/07 00:41:00;;;;;;;21.60;10.02;;;;;;;;;;4970438;28;20027;-78
2023/02/07 00:43:26;;;;;;;24.23;10.32;;;;;;;;;;4945922;28;20061;-79
2023/02/07 00:45:51;;;;;;;22.70;11.02;;;;;;;;;;4966638;28;20034;-78
2023/02/07 00:48:16;;;;;;;21.55;10.57;;;;;;;;;;4963489;28;20031;-77
2023/02/07 00:50:42;;;;;;;19.13;9.82;;;;;;;;;;4963363;28;20026;-75
2023/02/07 00:53:07;;;;;;;24.20;10.38;;;;;;;;;;4960246;28;20023;-78
2023/02/07 00:55:35;;;;;;;21.30;9.38;;;;;;;;;;4962316;28;20023;-79
2023/02/07 00:58:01;;;;;;;23.30;10.90;;;;;;;;;;4943252;29;20039;-78
2023/02/07 01:00:29;;;;;;;24.95;11.45;;;;;;;;;;4965167;28;20034;-79
2023/02/07 01:02:54;;;;;;;24.42;10.93;;;;;;;;;;4960868;28;20497;-76
2023/02/07 01:05:20;;;;;;;21.77;10.65;;;;;;;;;;4962098;28;20027;-78
2023/02/07 01:07:47;;;;;;;19.35;10.45;;;;;;;;;;4965402;28;20038;-79
2023/02/07 01:10:13;;;;;;;27.63;10.50;;;;;;;;;;4946281;29;20086;-77
2023/02/07 01:12:40;;;;;;;21.75;10.68;;;;;;;;;;4947827;28;20026;-78
2023/02/07 01:15:06;;;;;;;23.73;10.95;;;;;;;;;;4963869;28;20026;-77
2023/02/07 01:17:32;;;;;;;24.40;12.00;;;;;;;;;;4962520;28;20504;-79
2023/02/07 01:19:58;;;;;;;24.58;10.65;;;;;;;;;;4950721;28;20057;-80
2023/02/07 01:22:25;;;;;;;21.50;10.43;;;;;;;;;;4963426;28;20115;-78
2023/02/07 01:24:54;;;;;;;22.55;10.60;;;;;;;;;;4968956;28;20027;-78
2023/02/07 01:27:20;;;;;;;25.02;11.25;;;;;;;;;;4960487;28;20046;-77
2023/02/07 01:29:46;;;;;;;27.63;12.25;;;;;;;;;;4962396;28;20027;-78
2023/02/07 01:32:14;;;;;;;24.42;10.98;;;;;;;;;;4961612;29;20488;-78
2023/02/07 01:34:39;;;;;;;25.58;11.32;;;;;;;;;;4964497;28;20083;-79
2023/02/07 01:37:05;;;;;;;24.40;10.82;;;;;;;;;;4956153;28;20066;-81
2023/02/07 01:39:33;;;;;;;19.15;9.73;;;;;;;;;;4970971;28;20034;-78
2023/02/07 01:42:03;;;;;;;20.85;10.48;;;;;;;;;;4972529;28;20019;-78
2023/02/07 01:44:28;;;;;;;21.42;10.65;;;;;;;;;;4967570;28;20027;-76
2023/02/07 01:46:57;;;;;;;23.50;10.60;;;;;;;;;;4970577;28;20026;-78
2023/02/07 01:49:27;;;;;;;23.47;11.20;;;;;;;;;;4967034;28;20061;-78
2023/02/07 01:51:57;;;;;;;25.80;11.80;;;;;;;;;;4951021;28;20027;-78
2023/02/07 01:54:24;;;;;;;;;;;;;;;;;;4959979;28;20027;-78
2023/02/07 01:56:56;;;;;;;22.52;10.27;;;;;;;;;;4967776;28;20293;-79
2023/02/07 01:59:26;;;;;;;24.42;10.18;;;;;;;;;;4966626;28;20023;-79
2023/02/07 02:01:51;;;;;;;20.10;10.00;;;;;;;;;;4966798;28;20110;-77
2023/02/07 02:04:19;;;;;;;24.48;11.32;;;;;;;;;;4965918;28;20023;-78
2023/02/07 02:06:50;;;;;;;27.08;12.05;;;;;;;;;;4951454;28;20110;-77
2023/02/07 02:09:16;;;;;;;24.15;11.20;;;;;;;;;;4951689;29;20042;-77
2023/02/07 02:11:44;;;;;;;21.05;11.15;;;;;;;;;;4982469;28;20046;-76
2023/02/07 02:14:16;;;;;;;22.70;11.52;;;;;;;;;;4971056;28;20040;-80
2023/02/07 02:16:51;;;;;;;22.45;10.73;;;;;;;;;;4964030;28;20135;-79
2023/02/07 02:19:48;;;;;;;24.63;10.70;;;;;;;;;;4964081;28;20062;-78
2023/02/07 02:23:07;;;;;;;23.83;10.13;;;;;;;;;;4965470;28;20100;-77
2023/02/07 02:25:57;;;;;;;16.17;9.13;;;;;;;;;;4858335;29;20036;-77
2023/02/07 02:28:40;;;;;;;20.15;9.40;;;;;;;;;;4957655;28;20031;-78
2023/02/07 02:31:27;;;;;;;20.75;9.75;;;;;;;;;;4957863;29;20030;-79
2023/02/07 02:34:14;;;;;;;19.75;9.88;;;;;;;;;;4960258;28;20027;-79
2023/02/07 02:36:45;;;;;;;22.08;11.05;;;;;;;;;;4948031;28;20026;-79
2023/02/07 02:39:21;;;;;;;19.40;10.13;;;;;;;;;;4946476;29;20035;-79
2023/02/07 02:42:06;;;;;;;20.95;10.65;;;;;;;;;;4960444;28;20027;-78
2023/02/07 02:44:46;;;;;;;22.55;11.10;;;;;;;;;;4967479;28;20035;-78
2023/02/07 02:47:12;;;;;;;20.40;10.52;;;;;;;;;;4964848;28;20053;-78
2023/02/07 02:49:38;;;;;;;21.20;10.80;;;;;;;;;;4960439;28;20027;-77
2023/02/07 02:52:04;;;;;;;22.15;11.85;;;;;;;;;;4959716;28;20409;-78
2023/02/07 02:54:33;;;;;;;23.40;11.63;;;;;;;;;;4947705;28;20027;-78
2023/02/07 02:57:33;;;;;;;21.88;11.65;;;;;;;;;;4960112;28;20027;-78
2023/02/07 03:00:13;;;;;;;23.13;12.05;;;;;;;;;;4942129;29;20038;-77
2023/02/07 03:03:00;;;;;;;23.63;12.20;;;;;;;;;;4950652;28;20029;-78
2023/02/07 03:05:43;;;;;;;23.25;12.75;;;;;;;;;;4957495;28;20486;-79
2023/02/07 03:08:34;;;;;;;24.23;12.50;;;;;;;;;;4956081;28;20046;-77
2023/02/07 03:11:07;;;;;;;24.60;13.35;;;;;;;;;;4957989;28;20030;-78
2023/02/07 03:14:03;;;;;;;24.63;13.63;;;;;;;;;;4944588;28;20386;-78
2023/02/07 03:17:08;;;;;;;26.35;12.68;;;;;;;;;;4965744;28;20031;-78
2023/02/07 03:19:36;;;;;;;26.00;13.35;;;;;;;;;;4931256;29;20066;-78
2023/02/07 03:22:09;;;;;;;26.33;12.88;;;;;;;;;;4947808;29;20370;-78
2023/02/07 03:24:39;;;;;;;25.88;13.45;;;;;;;;;;4965950;28;20023;-77
2023/02/07 03:27:08;;;;;;;23.85;12.98;;;;;;;;;;4953160;28;20085;-76
2023/02/07 03:29:36;;;;;;;25.08;12.68;;;;;;;;;;4953649;29;20023;-79
2023/02/07 03:32:07;;;;;;;29.17;14.52;;;;;;;;;;4946960;29;20026;-80
2023/02/07 03:34:39;;;;;;;23.27;12.75;;;;;;;;;;4975591;28;20023;-78
2023/02/07 03:37:20;;;;;;;32.15;14.05;;;;;;;;;;4957381;29;20042;-78
2023/02/07 03:39:46;;;;;;;23.98;12.18;;;;;;;;;;4968323;28;20046;-78
2023/02/07 03:42:27;;;;;;;26.67;13.93;;;;;;;;;;4967977;28;20027;-78
2023/02/07 03:44:53;;;;;;;27.15;13.40;;;;;;;;;;4973894;28;20557;-79
2023/02/07 03:47:19;;;;;;;21.83;12.75;;;;;;;;;;4970581;28;20031;-79
2023/02/07 03:49:45;;;;;;;27.15;12.38;;;;;;;;;;4949043;29;20086;-77
2023/02/07 03:52:10;;;;;;;23.83;11.75;;;;;;;;;;4964858;28;20027;-79
2023/02/07 03:54:38;;;;;;;21.48;11.52;;;;;;;;;;4973870;28;20027;-79
2023/02/07 03:57:03;;;;;;;22.25;11.73;;;;;;;;;;4970715;28;20031;-79
2023/02/07 03:59:31;;;;;;;21.88;11.23;;;;;;;;;;4966845;28;20031;-78
2023/02/07 04:01:56;;;;;;;21.90;11.35;;;;;;;;;;4945739;29;20031;-79
2023/02/07 04:04:22;;;;;;;22.75;11.63;;;;;;;;;;4948243;28;20352;-78
2023/02/07 04:06:47;;;;;;;23.48;11.43;;;;;;;;;;4965767;28;20050;-79
2023/02/07 04:09:18;;;;;;;21.23;11.48;;;;;;;;;;4946640;29;20042;-78
2023/02/07 04:11:47;;;;;;;24.73;11.82;;;;;;;;;;4947518;29;20130;-78
2023/02/07 04:14:12;;;;;;;25.70;13.30;;;;;;;;;;4962848;28;20042;-77
2023/02/07 04:16:37;;;;;;;30.17;15.27;;;;;;;;;;4967908;28;20316;-79
2023/02/07 04:19:03;;;;;;;34.60;16.50;;;;;;;;;;4964467;28;20023;-78
2023/02/07 04:21:28;;;;;;;29.92;15.57;;;;;;;;;;4969495;28;20023;-79
2023/02/07 04:23:56;;;;;;;25.33;13.65;;;;;;;;;;4963468;28;20039;-78
2023/02/07 04:26:22;;;;;;;26.23;13.65;;;;;;;;;;4967194;28;20029;-77
2023/02/07 04:28:47;;;;;;;22.40;13.07;;;;;;;;;;4966018;28;20023;-77
2023/02/07 04:31:15;;;;;;;27.45;13.13;;;;;;;;;;4962530;28;20027;-80
2023/02/07 04:33:43;;;;;;;19.80;12.68;;;;;;;;;;4972192;28;20441;-78
2023/02/07 04:36:08;;;;;;;23.40;12.00;;;;;;;;;;4948852;29;20043;-79
2023/02/07 04:38:34;;;;;;;24.83;12.73;;;;;;;;;;4973709;28;20031;-77
2023/02/07 04:41:03;;;;;;;21.25;11.15;;;;;;;;;;4954176;29;20031;-76
2023/02/07 04:43:29;;;;;;;22.33;12.23;;;;;;;;;;4990519;28;20119;-78
2023/02/07 04:45:54;;;;;;;25.05;11.50;;;;;;;;;;4967317;28;20474;-79
2023/02/07 04:48:20;;;;;;;26.88;12.80;;;;;;;;;;4966884;28;20058;-77
2023/02/07 04:50:45;;;;;;;23.70;12.02;;;;;;;;;;4952873;29;20494;-76
2023/02/07 04:53:11;;;;;;;26.17;13.02;;;;;;;;;;4967962;28;20082;-78
2023/02/07 04:55:36;;;;;;;27.80;13.77;;;;;;;;;;4971752;28;20034;-77
2023/02/07 04:58:05;;;;;;;31.63;16.40;;;;;;;;;;4968194;28;20027;-77
2023/02/07 05:00:33;;;;;;;30.95;15.73;;;;;;;;;;4969095;28;20034;-77
2023/02/07 05:02:59;;;;;;;43.28;18.83;;;;;;;;;;4974423;28;20038;-77
2023/02/07 05:05:25;;;;;;;47.38;21.33;;;;;;;;;;4974866;28;20026;-77
2023/02/07 05:07:50;;;;;;;34.78;16.10;;;;;;;;;;4978466;28;20035;-77
2023/02/07 05:10:16;;;;;;;24.98;13.80;;;;;;;;;;4973457;28;20019;-77
2023/02/07 05:12:41;;;;;;;21.60;11.40;;;;;;;;;;4977406;28;20015;-76
2023/02/07 05:15:09;;;;;;;29.83;14.25;;;;;;;;;;4977341;28;20019;-76
2023/02/07 05:17:37;;;;;;;28.00;13.88;;;;;;;;;;4979044;28;20041;-76
2023/02/07 05:20:03;;;;;;;32.67;15.77;;;;;;;;;;4953557;29;20034;-77
2023/02/07 05:22:29;;;;;;;22.50;10.05;;;;;;;;;;4970226;28;20086;-76
2023/02/07 05:24:56;;;;;;;30.05;15.45;;;;;;;;;;4969215;28;20067;-79
2023/02/07 05:27:22;;;;;;;24.30;13.23;;;;;;;;;;4961082;28;20031;-79
2023/02/07 05:29:47;;;;;;;23.60;12.85;;;;;;;;;;4963053;28;20065;-78
2023/02/07 05:35:00;;;;;;;31.15;17.67;;;;;;;;;;4959049;28;20086;-77
2023/02/07 05:37:26;;;;;;;33.50;17.73;;;;;;;;;;4959292;28;20042;-79
2023/02/07 05:39:56;;;;;;;31.80;16.63;;;;;;;;;;4963819;28;20098;-78
2023/02/07 05:42:22;;;;;;;28.60;16.27;;;;;;;;;;4959853;28;20023;-77
2023/02/07 05:44:47;;;;;;;28.63;14.43;;;;;;;;;;4947206;28;20129;-78
2023/02/07 05:47:12;;;;;;;23.10;12.18;;;;;;;;;;4961826;28;20038;-78
2023/02/07 05:49:38;;;;;;;26.60;13.05;;;;;;;;;;4964249;28;20042;-78
2023/02/07 05:52:04;;;;;;;19.85;11.02;;;;;;;;;;4939191;29;20027;-78
2023/02/07 05:54:30;;;;;;;23.88;11.70;;;;;;;;;;4957565;28;20077;-77
2023/02/07 05:56:55;;;;;;;22.30;11.55;;;;;;;;;;4939311;29;20490;-77
2023/02/07 05:59:20;;;;;;;18.70;10.85;;;;;;;;;;4957966;28;20023;-78
2023/02/07 06:01:46;;;;;;;19.98;10.93;;;;;;;;;;4964467;28;20050;-79
2023/02/07 06:04:11;;;;;;;17.05;10.32;;;;;;;;;;4964756;28;20050;-78
2023/02/07 06:06:37;;;;;;;18.65;10.00;;;;;;;;;;4958174;28;20027;-79
2023/02/07 06:09:04;;;;;;;20.20;11.93;;;;;;;;;;4952125;28;20035;-79
2023/02/07 06:11:32;;;;;;;17.42;10.65;;;;;;;;;;4957009;28;20031;-79
2023/02/07 06:13:57;;;;;;;19.75;11.27;;;;;;;;;;4937934;29;20029;-78
2023/02/07 06:16:23;;;;;;;19.83;10.85;;;;;;;;;;4946652;28;20027;-78
2023/02/07 06:18:48;;;;;;;21.27;12.07;;;;;;;;;;4949560;28;20022;-76
2023/02/07 06:21:14;;;;;;;21.95;11.93;;;;;;;;;;4942316;29;20542;-78
2023/02/07 06:23:39;;;;;;;20.05;11.57;;;;;;;;;;4963965;28;20108;-79
2023/02/07 06:26:07;;;;;;;22.10;13.38;;;;;;;;;;4965242;28;20066;-77
2023/02/07 06:28:32;;;;;;;38.35;17.75;;;;;;;;;;4966941;28;20464;-76
2023/02/07 06:30:58;;;;;;;30.50;15.38;;;;;;;;;;4972643;28;20015;-79
2023/02/07 06:33:23;;;;;;;23.42;11.13;;;;;;;;;;4952863;28;20121;-78
2023/02/07 06:35:49;;;;;;;20.73;11.20;;;;;;;;;;4973147;28;20019;-77
2023/02/07 06:38:16;;;;;;;18.60;10.68;;;;;;;;;;4964075;28;20023;-77
2023/02/07 06:40:42;;;;;;;19.08;10.65;;;;;;;;;;4951607;28;20030;-79
2023/02/07 06:43:07;;;;;;;19.33;11.20;;;;;;;;;;4961848;28;20483;-76
2023/02/07 06:45:33;;;;;;;18.88;10.80;;;;;;;;;;4967260;28;20493;-79
2023/02/07 06:47:58;;;;;;;18.05;10.90;;;;;;;;;;4967352;28;20570;-79
2023/02/07 06:50:23;;;;;;;21.73;10.95;;;;;;;;;;4968210;28;20119;-77
2023/02/07 06:52:49;;;;;;;23.58;11.25;;;;;;;;;;4952606;28;20021;-79
2023/02/07 06:55:14;;;;;;;19.73;10.95;;;;;;;;;;4965759;28;20438;-78
2023/02/07 06:57:42;;;;;;;19.30;10.25;;;;;;;;;;4963818;28;20039;-78
2023/02/07 07:00:08;;;;;;;23.80;12.93;;;;;;;;;;4946915;29;20019;-76
2023/02/07 07:02:36;;;;;;;21.52;11.82;;;;;;;;;;4972237;28;20034;-76
2023/02/07 07:05:02;;;;;;;21.40;11.95;;;;;;;;;;4950094;28;20050;-79
2023/02/07 07:07:30;;;;;;;25.63;13.95;;;;;;;;;;4971957;28;20027;-77
2023/02/07 07:09:55;;;;;;;28.48;14.63;;;;;;;;;;4953798;28;20023;-79
2023/02/07 07:12:21;;;;;;;25.85;13.15;;;;;;;;;;4971203;28;20027;-78
2023/02/07 07:14:46;;;;;;;38.70;18.15;;;;;;;;;;4949832;29;20051;-75
2023/02/07 07:17:14;;;;;;;32.50;15.65;;;;;;;;;;4949905;28;20031;-78
2023/02/07 07:19:39;;;;;;;25.45;13.98;;;;;;;;;;4960242;28;20022;-77
2023/02/07 07:22:05;;;;;;;20.92;12.80;;;;;;;;;;4960452;28;20019;-78
2023/02/07 07:24:30;;;;;;;31.70;14.18;;;;;;;;;;4968172;28;20045;-80
2023/02/07 07:26:55;;;;;;;24.52;13.57;;;;;;;;;;4959187;28;20031;-79
2023/02/07 07:29:21;;;;;;;22.15;12.48;;;;;;;;;;4970410;28;20027;-77
2023/02/07 07:31:46;;;;;;;28.40;15.10;;;;;;;;;;4973547;28;20023;-78
2023/02/07 07:34:12;;;;;;;28.27;15.90;;;;;;;;;;4969311;28;20019;-79
2023/02/07 07:36:38;;;;;;;33.20;17.55;;;;;;;;;;4971653;28;20023;-78
2023/02/07 07:39:04;;;;;;;22.77;13.38;;;;;;;;;;4969152;28;20070;-78
2023/02/07 07:41:29;;;;;;;32.15;17.27;;;;;;;;;;4950805;29;20259;-78
2023/02/07 07:43:55;;;;;;;28.05;16.42;;;;;;;;;;4959560;29;20023;-79
2023/02/07 07:46:20;;;;;;;26.85;14.10;;;;;;;;;;4967071;28;20062;-78
2023/02/07 07:48:46;;;;;;;23.45;12.32;;;;;;;;;;4966305;28;20502;-78
2023/02/07 07:51:11;;;;;;;23.30;12.18;;;;;;;;;;4947464;29;20062;-78
2023/02/07 07:53:36;;;;;;;25.48;12.75;;;;;;;;;;4966549;28;20114;-79
2023/02/07 07:56:02;;;;;;;24.88;12.85;;;;;;;;;;4965061;28;20015;-80
2023/02/07 07:58:28;;;;;;;23.17;12.10;;;;;;;;;;4945226;28;20027;-78
2023/02/07 08:00:53;;;;;;;36.80;16.40;;;;;;;;;;4967081;28;20033;-79
2023/02/07 08:03:19;;;;;;;32.88;16.08;;;;;;;;;;4969168;28;20031;-79
2023/02/07 08:05:46;;;;;;;29.13;14.60;;;;;;;;;;4949355;29;20035;-79
2023/02/07 08:08:11;;;;;;;27.58;13.57;;;;;;;;;;4968710;28;20086;-79
2023/02/07 08:10:37;;;;;;;30.85;14.45;;;;;;;;;;4967487;28;20030;-77
2023/02/07 08:13:03;;;;;;;29.30;14.63;;;;;;;;;;4954478;28;20030;-78
2023/02/07 08:15:28;;;;;;;26.10;13.13;;;;;;;;;;4969681;28;20098;-80
2023/02/07 08:17:54;;;;;;;23.92;12.23;;;;;;;;;;4948480;29;20023;-79
2023/02/07 08:20:19;;;;;;;23.30;12.52;;;;;;;;;;4966218;28;20643;-79
2023/02/07 08:22:45;;;;;;;17.63;11.57;;;;;;;;;;4970042;28;20057;-78
2023/02/07 08:25:10;;;;;;;19.23;12.15;;;;;;;;;;4952923;28;20031;-79
2023/02/07 08:27:36;;;;;;;22.77;12.20;;;;;;;;;;4952122;28;20086;-79
2023/02/07 08:30:02;;;;;;;22.60;11.80;;;;;;;;;;4946113;28;20030;-79
2023/02/07 08:32:28;;;;;;;26.33;14.00;;;;;;;;;;4967920;28;20023;-77
2023/02/07 08:34:56;;;;;;;25.30;13.65;;;;;;;;;;4949998;28;20122;-79
2023/02/07 08:37:22;;;;;;;23.73;12.88;;;;;;;;;;4952757;28;20031;-79
2023/02/07 08:39:51;;;;;;;24.17;12.50;;;;;;;;;;4952336;28;20026;-79
2023/02/07 08:42:20;;;;;;;22.33;13.13;;;;;;;;;;4964926;28;20038;-77
2023/02/07 08:44:47;;;;;;;26.30;14.77;;;;;;;;;;4962151;28;20513;-79
2023/02/07 08:47:12;;;;;;;27.65;15.00;;;;;;;;;;4950019;28;20038;-78
2023/02/07 08:49:38;;;;;;;26.45;14.25;;;;;;;;;;4948161;28;20054;-79
2023/02/07 08:52:03;;;;;;;26.83;14.88;;;;;;;;;;4962992;28;20026;-78
2023/02/07 08:54:29;;;;;;;23.65;13.88;;;;;;;;;;4963893;28;20086;-79
2023/02/07 08:56:55;;;;;;;22.17;12.20;;;;;;;;;;4947824;28;20054;-78
2023/02/07 08:59:20;;;;;;;21.17;13.00;;;;;;;;;;4962226;28;20446;-79
2023/02/07 09:01:48;;;;;;;22.30;12.38;;;;;;;;;;4952895;28;20477;-77
2023/02/07 09:04:16;;;;;;;20.38;12.65;;;;;;;;;;4952121;28;20102;-77
2023/02/07 09:06:41;;;;;;;23.20;13.73;;;;;;;;;;4963075;28;20497;-77
2023/02/07 09:09:08;;;;;;;20.63;13.52;;;;;;;;;;4966530;28;20094;-79
2023/02/07 09:11:34;;;;;;;26.00;14.55;;;;;;;;;;4964734;28;20066;-78
2023/02/07 09:13:59;;;;;;;22.98;12.88;;;;;;;;;;4959847;28;20019;-80
2023/02/07 09:16:25;;;;;;;23.65;13.52;;;;;;;;;;4967757;28;20023;-79
2023/02/07 09:18:50;;;;;;;21.20;13.30;;;;;;;;;;4948809;29;20023;-79
2023/02/07 09:21:18;;;;;;;22.75;12.70;;;;;;;;;;4965828;28;20084;-78
2023/02/07 09:23:46;;;;;;;27.58;13.63;;;;;;;;;;4953378;28;20082;-78
2023/02/07 09:26:20;;;;;;;26.23;14.45;;;;;;;;;;4952456;28;20047;-80
2023/02/07 09:28:46;;;;;;;22.55;13.57;;;;;;;;;;4955585;28;20026;-79
2023/02/07 09:31:14;;;;;;;21.73;12.55;;;;;;;;;;4968538;28;20089;-80
2023/02/07 09:33:40;;;;;;;22.88;13.43;;;;;;;;;;4971350;28;20023;-79
2023/02/07 09:36:18;;;;;;;21.20;13.95;;;;;;;;;;4944389;29;20023;-80
2023/02/07 09:38:44;;;;;;;21.67;13.75;;;;;;;;;;4964096;28;20512;-79
2023/02/07 09:41:26;;;;;;;20.15;13.48;;;;;;;;;;4966194;28;20027;-79
2023/02/07 09:44:04;;;;;;;19.52;12.48;;;;;;;;;;4954859;28;20031;-78
2023/02/07 09:46:35;;;;;;;21.70;13.05;;;;;;;;;;4957368;28;20074;-77
2023/02/07 09:49:08;;;;;;;26.45;13.95;;;;;;;;;;4964253;28;20019;-80
2023/02/07 09:51:35;;;;;;;25.13;14.45;;;;;;;;;;4945506;29;20035;-79
2023/02/07 09:54:04;;;;;;;21.88;13.45;;;;;;;;;;4959952;28;20031;-79
2023/02/07 09:56:35;;;;;;;21.70;13.02;;;;;;;;;;4960744;28;20090;-79
2023/02/07 09:59:09;;;;;;;22.60;13.25;;;;;;;;;;4957558;28;20216;-79
2023/02/07 10:01:42;;;;;;;22.45;13.88;;;;;;;;;;4965181;28;20031;-80
2023/02/07 10:04:25;;;;;;;21.45;13.60;;;;;;;;;;4955533;28;20368;-78
2023/02/07 10:06:58;;;;;;;23.67;13.25;;;;;;;;;;4956174;28;20035;-79
2023/02/07 10:09:33;;;;;;;23.15;14.52;;;;;;;;;;4949931;28;20218;-78
2023/02/07 10:12:03;;;;;;;20.58;13.60;;;;;;;;;;4961264;28;20047;-79
2023/02/07 10:14:48;;;;;;;20.60;14.13;;;;;;;;;;4963796;28;20498;-79
2023/02/07 10:17:32;;;;;;;23.67;13.73;;;;;;;;;;4948235;28;20027;-77
2023/02/07 10:20:36;;;;;;;21.50;13.45;;;;;;;;;;4962322;28;20395;-79
2023/02/07 10:23:28;;;;;;;22.70;15.00;;;;;;;;;;4954502;28;20038;-79
2023/02/07 10:26:18;;;;;;;21.23;13.45;;;;;;;;;;4970591;28;20019;-79
2023/02/07 10:29:28;;;;;;;20.90;12.65;;;;;;;;;;4943742;28;20026;-79
2023/02/07 10:31:57;;;;;;;19.98;12.20;;;;;;;;;;4919360;28;20070;-80
2023/02/07 10:34:29;;;;;;;19.23;12.52;;;;;;;;;;4971159;28;20110;-78
2023/02/07 10:36:56;;;;;;;21.17;12.70;;;;;;;;;;4955144;28;20033;-79
2023/02/07 10:39:28;;;;;;;24.58;13.88;;;;;;;;;;4969716;28;20027;-79
2023/02/07 10:41:56;;;;;;;25.02;14.70;;;;;;;;;;4968519;28;20019;-78
2023/02/07 10:44:22;;;;;;;17.67;11.90;;;;;;;;;;4966392;28;20055;-78
2023/02/07 10:47:00;;;;;;;19.38;12.27;;;;;;;;;;4960779;28;20027;-78
2023/02/07 10:49:28;;;;;;;18.88;11.95;;;;;;;;;;4946356;28;20422;-77
2023/02/07 10:51:57;;;;;;;24.95;13.73;;;;;;;;;;4964134;28;20405;-79
2023/02/07 10:54:26;;;;;;;23.30;14.13;;;;;;;;;;4946717;28;20091;-79
2023/02/07 10:57:00;;;;;;;19.63;12.68;;;;;;;;;;4950691;28;20089;-78
2023/02/07 10:59:37;;;;;;;21.13;12.90;;;;;;;;;;4968390;28;20490;-78
2023/02/07 11:02:27;;;;;;;21.52;12.15;;;;;;;;;;4965997;28;20058;-78
2023/02/07 11:04:55;;;;;;;17.27;12.05;;;;;;;;;;4962629;28;20031;-79
2023/02/07 11:07:21;;;;;;;17.55;12.63;;;;;;;;;;4955847;28;20031;-78
2023/02/07 11:09:47;;;;;;;18.52;12.38;;;;;;;;;;4946678;28;20038;-78
2023/02/07 11:12:20;;;;;;;21.42;12.32;;;;;;;;;;4965159;28;20038;-78
2023/02/07 11:15:14;;;;;;;18.45;12.30;;;;;;;;;;4966063;28;20030;-78
2023/02/07 11:17:47;;;;;;;15.75;11.95;;;;;;;;;;4946813;28;20102;-79
2023/02/07 11:20:29;;;;;;;18.92;12.02;;;;;;;;;;4942729;29;20035;-78
2023/02/07 11:22:56;;;;;;;15.32;10.75;;;;;;;;;;4964680;28;20102;-80
2023/02/07 11:25:40;;;;;;;15.32;9.82;;;;;;;;;;4970107;28;20569;-78
2023/02/07 11:28:13;;;;;;;14.60;10.30;;;;;;;;;;4956146;28;20043;-78
2023/02/07 11:30:38;;;;;;;25.95;13.70;;;;;;;;;;4969763;28;20025;-78
2023/02/07 11:33:14;;;;;;;18.38;11.10;;;;;;;;;;4949614;28;20490;-79
2023/02/07 11:36:04;;;;;;;16.98;10.32;;;;;;;;;;4971058;28;20022;-79
2023/02/07 11:38:30;;;;;;;17.00;10.25;;;;;;;;;;4967384;28;20057;-79
2023/02/07 11:41:05;;;;;;;19.25;10.98;;;;;;;;;;4966017;28;20054;-79
2023/02/07 11:43:32;;;;;;;12.02;9.10;;;;;;;;;;4965943;28;20085;-79
2023/02/07 11:46:02;;;;;;;13.75;9.13;;;;;;;;;;4946438;29;20482;-78
2023/02/07 11:48:32;;;;;;;16.13;10.18;;;;;;;;;;4959141;28;20363;-79
2023/02/07 11:51:00;;;;;;;24.42;12.35;;;;;;;;;;4964592;28;20019;-77
2023/02/07 11:53:37;;;;;;;19.05;9.30;;;;;;;;;;4967123;28;20041;-79
2023/02/07 11:56:03;;;;;;;13.25;8.32;;;;;;;;;;4950977;28;20033;-76
2023/02/07 11:58:35;;;;;;;14.25;10.23;;;;;;;;;;4968242;28;20034;-76
2023/02/07 12:01:03;;;;;;;14.90;9.60;;;;;;;;;;4969320;28;20042;-77
2023/02/07 12:03:57;;;;;;;12.63;9.25;;;;;;;;;;4968540;28;20425;-77
2023/02/07 12:06:32;;;;;;;15.82;9.90;;;;;;;;;;4963246;28;20131;-77
2023/02/07 12:08:58;;;;;;;13.88;9.10;;;;;;;;;;4948536;28;20110;-78
2023/02/07 12:11:30;;;;;;;13.43;8.32;;;;;;;;;;4961578;28;20023;-79
2023/02/07 12:14:10;;;;;;;12.63;8.45;;;;;;;;;;4958822;28;20030;-76
2023/02/07 12:16:45;;;;;;;11.82;8.30;;;;;;;;;;4965201;28;20453;-76
2023/02/07 12:19:19;;;;;;;11.38;8.07;;;;;;;;;;4962388;28;20022;-78
2023/02/07 12:22:00;;;;;;;10.98;7.75;;;;;;;;;;4961772;28;20087;-78
2023/02/07 12:25:06;;;;;;;12.30;8.90;;;;;;;;;;4950947;28;20035;-78
2023/02/07 12:27:41;;;;;;;9.68;7.90;;;;;;;;;;4946496;28;20047;-78
2023/02/07 12:30:30;;;;;;;11.88;8.68;;;;;;;;;;4968316;28;20027;-78
2023/02/07 12:33:02;;;;;;;;;;;;;;;;;;4966540;28;20401;-78
2023/02/07 12:35:35;;;;;;;12.23;8.32;;;;;;;;;;4969129;28;19910;-79
2023/02/07 12:38:12;;;;;;;11.30;8.43;;;;;;;;;;4966426;28;20093;-78
2023/02/07 12:40:56;;;;;;;11.95;8.77;;;;;;;;;;4951695;28;20038;-78
2023/02/07 12:43:31;;;;;;;10.98;8.80;;;;;;;;;;4949136;28;20023;-77
2023/02/07 12:46:00;;;;;;;12.77;8.80;;;;;;;;;;4955762;28;20019;-78
2023/02/07 12:48:34;;;;;;;13.75;8.52;;;;;;;;;;4941378;28;20023;-77
2023/02/07 12:51:26;;;;;;;10.93;8.57;;;;;;;;;;4946818;28;20026;-78
2023/02/07 12:54:08;;;;;;;12.02;9.13;;;;;;;;;;4961573;28;20023;-79
2023/02/07 12:57:00;;;;;;;12.50;8.25;;;;;;;;;;4970245;28;20046;-79
2023/02/07 13:00:11;;;;;;;15.52;9.38;;;;;;;;;;4945502;28;20094;-77
2023/02/07 13:03:06;;;;;;;12.43;8.13;;;;;;;;;;4950915;28;20034;-78
2023/02/07 13:05:57;;;;;;;13.95;7.70;;;;;;;;;;4913422;28;20054;-77
2023/02/07 13:08:50;;;;;;;13.35;6.93;;;;;;;;;;4968590;28;20038;-77
2023/02/07 13:11:50;;;;;;;9.93;6.25;;;;;;;;;;4963228;28;20066;-76
2023/02/07 13:14:30;;;;;;;12.67;7.93;;;;;;;;;;4969961;28;20026;-79
2023/02/07 13:16:55;;;;;;;11.15;8.57;;;;;;;;;;4962491;28;20050;-78
2023/02/07 13:19:29;;;;;;;10.57;7.88;;;;;;;;;;4957013;29;20042;-79
2023/02/07 13:22:10;;;;;;;13.70;7.57;;;;;;;;;;4945527;28;20081;-78
2023/02/07 13:24:50;;;;;;;8.20;5.88;;;;;;;;;;4971635;28;20031;-78
2023/02/07 13:27:26;;;;;;;9.32;6.97;;;;;;;;;;4947689;28;20039;-78
2023/02/07 13:29:52;;;;;;;10.90;6.40;;;;;;;;;;4950671;28;20026;-78
2023/02/07 13:32:28;;;;;;;9.98;6.32;;;;;;;;;;4953892;28;20059;-79
2023/02/07 13:34:57;;;;;;;9.73;6.55;;;;;;;;;;4967796;28;20030;-77
2023/02/07 13:37:46;;;;;;;9.40;6.38;;;;;;;;;;4968344;28;20050;-76
2023/02/07 13:40:37;;;;;;;9.82;6.38;;;;;;;;;;4950812;28;20034;-78
2023/02/07 13:43:24;;;;;;;11.48;6.40;;;;;;;;;;4949116;29;20030;-77
2023/02/07 13:46:31;;;;;;;16.20;8.57;;;;;;;;;;4962446;28;20215;-77
2023/02/07 13:49:36;;;;;;;12.48;9.20;;;;;;;;;;4954533;28;20027;-78
2023/02/07 13:52:10;;;;;;;16.27;9.07;;;;;;;;;;4962956;28;20085;-78
2023/02/07 13:55:13;;;;;;;12.90;9.88;;;;;;;;;;4960326;28;20035;-77
2023/02/07 14:01:31;;;;;;;13.13;7.78;;;;;;;;;;4959556;28;20037;-78
2023/02/07 14:04:00;;;;;;;;;;;;;;;;;;4950836;29;20494;-76
2023/02/07 14:06:31;;;;;;;14.07;8.87;;;;;;;;;;4968896;28;19922;-77
2023/02/07 14:09:21;;;;;;;12.38;9.57;;;;;;;;;;4971531;28;20029;-78
2023/02/07 14:11:55;;;;;;;13.32;9.48;;;;;;;;;;4968727;28;20227;-78
2023/02/07 14:14:27;;;;;;;11.85;8.82;;;;;;;;;;4967927;28;20038;-78
2023/02/07 14:16:58;;;;;;;11.30;9.23;;;;;;;;;;4971813;28;20019;-77
2023/02/07 14:19:44;;;;;;;13.23;9.38;;;;;;;;;;4945676;28;20118;-76
2023/02/07 14:22:17;;;;;;;13.35;9.65;;;;;;;;;;4918814;28;20045;-76
2023/02/07 14:24:58;;;;;;;13.52;9.45;;;;;;;;;;4949616;28;20027;-78
2023/02/07 14:27:47;;;;;;;14.50;9.43;;;;;;;;;;4949743;28;20031;-76
2023/02/07 14:30:35;;;;;;;9.65;7.60;;;;;;;;;;4970183;28;20038;-77
2023/02/07 14:33:14;;;;;;;12.00;8.43;;;;;;;;;;4970578;28;20098;-77
2023/02/07 14:36:02;;;;;;;10.70;7.82;;;;;;;;;;4957180;28;20324;-75
2023/02/07 14:38:42;;;;;;;10.45;8.23;;;;;;;;;;4964915;28;20050;-75
2023/02/07 14:41:18;;;;;;;12.00;8.30;;;;;;;;;;4949249;29;20060;-78
2023/02/07 14:43:51;;;;;;;13.00;8.27;;;;;;;;;;4947607;28;20026;-78
2023/02/07 14:46:41;;;;;;;13.38;7.93;;;;;;;;;;4963727;28;20499;-78
2023/02/07 14:49:22;;;;;;;10.93;7.82;;;;;;;;;;4963942;28;20031;-78
2023/02/07 14:51:54;;;;;;;11.23;8.43;;;;;;;;;;4963562;28;20027;-79
2023/02/07 14:54:30;;;;;;;14.65;8.45;;;;;;;;;;4966955;28;20050;-78